Time;durP1;ratioP1;P1;durP2;ratioP2;P2;SDS_P1;SDS_P2;PMS_P1;PMS_P2;Temp;Humidity;BMP_temperature;BMP_pressure;BME280_temperature;BME280_humidity;BME280_pressure;Samples;Min_cycle;Max_cycle;Signal;HPM_P1;HPM_P2
2022/01/09 00:01:36;;;;;;;0.77;0.60;;;;;;;;;;5000275;28;20030;-71
2022/01/09 00:04:01;;;;;;;0.75;0.70;;;;;;;;;;5018009;28;20029;-71
2022/01/09 00:06:27;;;;;;;1.83;0.70;;;;;;;;;;5033302;28;20026;-71
2022/01/09 00:08:52;;;;;;;1.65;0.60;;;;;;;;;;5017715;28;20031;-71
2022/01/09 00:11:25;;;;;;;1.30;0.70;;;;;;;;;;5025396;28;20040;-71
2022/01/09 00:13:50;;;;;;;0.30;0.30;;;;;;;;;;4999829;28;20006;-72
2022/01/09 00:16:15;;;;;;;4.47;0.73;;;;;;;;;;5017769;28;20307;-72
2022/01/09 00:18:41;;;;;;;4.75;0.82;;;;;;;;;;5001074;28;20014;-72
2022/01/09 00:21:06;;;;;;;3.95;0.60;;;;;;;;;;5000830;28;20041;-71
2022/01/09 00:23:33;;;;;;;3.33;0.73;;;;;;;;;;5017838;28;20049;-72
2022/01/09 00:26:00;;;;;;;1.88;0.60;;;;;;;;;;5017924;28;20022;-72
2022/01/09 00:28:25;;;;;;;2.08;0.70;;;;;;;;;;5024659;28;20011;-71
2022/01/09 00:30:51;;;;;;;3.25;0.60;;;;;;;;;;5017971;28;20029;-72
2022/01/09 00:33:20;;;;;;;1.35;0.68;;;;;;;;;;5017948;28;20023;-72
2022/01/09 00:35:46;;;;;;;0.30;0.30;;;;;;;;;;5017702;28;20026;-72
2022/01/09 00:38:11;;;;;;;0.82;0.52;;;;;;;;;;5008641;28;20022;-72
2022/01/09 00:40:37;;;;;;;0.88;0.50;;;;;;;;;;5017832;28;20024;-72
2022/01/09 00:43:02;;;;;;;0.45;0.40;;;;;;;;;;5017318;28;20018;-72
2022/01/09 00:45:28;;;;;;;1.38;0.65;;;;;;;;;;5017354;28;20041;-72
2022/01/09 00:47:53;;;;;;;0.77;0.50;;;;;;;;;;5017287;28;20074;-72
2022/01/09 00:50:21;;;;;;;1.55;0.50;;;;;;;;;;5017353;28;20062;-71
2022/01/09 00:52:46;;;;;;;2.35;0.70;;;;;;;;;;5017449;28;20034;-72
2022/01/09 00:55:12;;;;;;;1.13;0.70;;;;;;;;;;4998675;28;20102;-71
2022/01/09 00:57:38;;;;;;;0.40;0.40;;;;;;;;;;5017260;28;20022;-73
2022/01/09 01:00:06;;;;;;;2.08;0.70;;;;;;;;;;5015584;28;20075;-71
2022/01/09 01:02:32;;;;;;;1.00;0.80;;;;;;;;;;5017234;28;20007;-71
2022/01/09 01:04:57;;;;;;;1.27;0.60;;;;;;;;;;5017316;28;20038;-71
2022/01/09 01:07:23;;;;;;;0.60;0.43;;;;;;;;;;5016698;28;20018;-71
2022/01/09 01:09:48;;;;;;;1.98;0.60;;;;;;;;;;5018296;28;20023;-72
2022/01/09 01:12:14;;;;;;;1.70;0.80;;;;;;;;;;5017038;28;20022;-71
2022/01/09 01:14:40;;;;;;;1.35;0.50;;;;;;;;;;5021059;28;20029;-72
2022/01/09 01:17:05;;;;;;;2.17;0.57;;;;;;;;;;5021023;28;20018;-71
2022/01/09 01:19:30;;;;;;;0.93;0.60;;;;;;;;;;5020769;28;20011;-72
2022/01/09 01:21:58;;;;;;;2.70;0.73;;;;;;;;;;5020746;28;20026;-72
2022/01/09 01:24:23;;;;;;;1.48;0.60;;;;;;;;;;5020392;28;20079;-71
2022/01/09 01:26:49;;;;;;;2.40;0.60;;;;;;;;;;4999727;28;20014;-71
2022/01/09 01:29:15;;;;;;;1.48;0.60;;;;;;;;;;5020268;28;20022;-72
2022/01/09 01:31:41;;;;;;;2.85;0.70;;;;;;;;;;5020459;28;20010;-72
2022/01/09 01:34:06;;;;;;;0.88;0.43;;;;;;;;;;5020239;28;20022;-71
2022/01/09 01:36:31;;;;;;;1.00;0.55;;;;;;;;;;5020242;28;20014;-71
2022/01/09 01:38:57;;;;;;;0.95;0.73;;;;;;;;;;5019949;28;20014;-71
2022/01/09 01:41:22;;;;;;;1.55;0.77;;;;;;;;;;5019874;28;20030;-71
2022/01/09 01:43:48;;;;;;;3.55;1.13;;;;;;;;;;5019872;28;20041;-72
2022/01/09 01:46:13;;;;;;;2.90;0.70;;;;;;;;;;5003729;28;20079;-71
2022/01/09 01:48:39;;;;;;;1.30;0.38;;;;;;;;;;5020469;28;20018;-71
2022/01/09 01:51:04;;;;;;;0.75;0.52;;;;;;;;;;5020468;28;20033;-72
2022/01/09 01:53:30;;;;;;;3.92;0.98;;;;;;;;;;5019943;28;20018;-71
2022/01/09 01:55:56;;;;;;;2.40;0.80;;;;;;;;;;5009803;28;20034;-72
2022/01/09 01:58:24;;;;;;;1.67;0.82;;;;;;;;;;5020914;28;20034;-71
2022/01/09 02:00:49;;;;;;;3.08;0.90;;;;;;;;;;5020171;28;20054;-71
2022/01/09 02:03:15;;;;;;;1.15;0.57;;;;;;;;;;5011358;28;20018;-71
2022/01/09 02:05:45;;;;;;;1.30;0.70;;;;;;;;;;5008926;28;20011;-71
2022/01/09 02:08:11;;;;;;;3.22;0.80;;;;;;;;;;5019745;28;20025;-71
2022/01/09 02:10:42;;;;;;;2.03;0.77;;;;;;;;;;5023300;28;20026;-72
2022/01/09 02:13:08;;;;;;;1.42;0.70;;;;;;;;;;5019779;28;20018;-71
2022/01/09 02:15:36;;;;;;;2.85;1.02;;;;;;;;;;5019753;28;20069;-72
2022/01/09 02:18:10;;;;;;;5.93;0.70;;;;;;;;;;5002664;28;20018;-72
2022/01/09 02:20:37;;;;;;;2.25;0.90;;;;;;;;;;5019524;28;20052;-73
2022/01/09 02:23:05;;;;;;;4.85;0.77;;;;;;;;;;5022629;28;20014;-72
2022/01/09 02:25:31;;;;;;;1.05;0.80;;;;;;;;;;5018779;28;20006;-72
2022/01/09 02:27:56;;;;;;;2.08;0.82;;;;;;;;;;5019718;28;20049;-72
2022/01/09 02:30:25;;;;;;;1.90;0.77;;;;;;;;;;5019582;28;20029;-72
2022/01/09 02:32:50;;;;;;;2.78;1.13;;;;;;;;;;5002361;28;20072;-72
2022/01/09 02:35:16;;;;;;;5.03;1.38;;;;;;;;;;5019880;28;20026;-72
2022/01/09 02:37:41;;;;;;;4.47;1.10;;;;;;;;;;5019425;28;20019;-72
2022/01/09 02:40:07;;;;;;;2.92;1.20;;;;;;;;;;5018913;28;20027;-72
2022/01/09 02:42:33;;;;;;;2.75;1.05;;;;;;;;;;5019114;28;20037;-72
2022/01/09 02:44:59;;;;;;;7.75;1.50;;;;;;;;;;5002220;28;20014;-71
2022/01/09 02:47:33;;;;;;;8.07;1.60;;;;;;;;;;5018809;28;20026;-72
2022/01/09 02:50:08;;;;;;;10.30;1.40;;;;;;;;;;5013981;28;20025;-72
2022/01/09 02:52:48;;;;;;;5.90;1.30;;;;;;;;;;5018836;28;20026;-72
2022/01/09 02:55:15;;;;;;;6.50;1.27;;;;;;;;;;5031529;28;20024;-72
2022/01/09 02:57:48;;;;;;;4.05;1.17;;;;;;;;;;5019078;28;20010;-72
2022/01/09 03:00:23;;;;;;;6.68;1.42;;;;;;;;;;5001896;28;20078;-71
2022/01/09 03:02:48;;;;;;;2.65;1.10;;;;;;;;;;5017523;28;20037;-72
2022/01/09 03:05:14;;;;;;;4.43;1.02;;;;;;;;;;5019241;28;20022;-72
2022/01/09 03:07:42;;;;;;;1.88;1.08;;;;;;;;;;5018777;28;20034;-72
2022/01/09 03:10:08;;;;;;;4.40;1.65;;;;;;;;;;5018783;28;20018;-72
2022/01/09 03:12:34;;;;;;;1.50;1.00;;;;;;;;;;5019123;28;20041;-72
2022/01/09 03:15:00;;;;;;;2.58;0.93;;;;;;;;;;5018381;28;20010;-72
2022/01/09 03:17:25;;;;;;;1.35;0.47;;;;;;;;;;5001225;28;20010;-71
2022/01/09 03:19:51;;;;;;;1.10;0.60;;;;;;;;;;5002479;28;20014;-73
2022/01/09 03:22:16;;;;;;;1.85;0.82;;;;;;;;;;5018670;28;20022;-72
2022/01/09 03:24:44;;;;;;;3.65;1.05;;;;;;;;;;5018100;28;20049;-72
2022/01/09 03:27:10;;;;;;;6.55;1.23;;;;;;;;;;5000896;28;20011;-73
2022/01/09 03:29:37;;;;;;;6.00;1.25;;;;;;;;;;5018826;28;20013;-73
2022/01/09 03:32:04;;;;;;;5.40;1.30;;;;;;;;;;5001196;28;20033;-73
2022/01/09 03:34:29;;;;;;;4.50;1.15;;;;;;;;;;5018079;28;20015;-73
2022/01/09 03:36:54;;;;;;;5.13;1.30;;;;;;;;;;5019854;28;20033;-73
2022/01/09 03:39:20;;;;;;;5.55;1.60;;;;;;;;;;5001276;28;20082;-73
2022/01/09 03:41:45;;;;;;;5.93;0.82;;;;;;;;;;5007995;28;20030;-73
2022/01/09 03:44:11;;;;;;;3.00;1.25;;;;;;;;;;5018361;28;20044;-73
2022/01/09 03:46:36;;;;;;;5.22;1.40;;;;;;;;;;5018691;28;20053;-72
2022/01/09 03:49:02;;;;;;;1.95;0.95;;;;;;;;;;5018172;28;20029;-73
2022/01/09 03:51:32;;;;;;;3.58;1.15;;;;;;;;;;5001492;28;20023;-74
2022/01/09 03:53:59;;;;;;;4.88;1.52;;;;;;;;;;5017735;28;20018;-72
2022/01/09 03:56:25;;;;;;;6.00;1.40;;;;;;;;;;5017900;28;20014;-72
2022/01/09 03:58:51;;;;;;;6.20;1.48;;;;;;;;;;5018622;28;20014;-72
2022/01/09 04:01:16;;;;;;;5.05;1.33;;;;;;;;;;5018406;28;20030;-72
2022/01/09 04:03:41;;;;;;;5.05;1.30;;;;;;;;;;5000800;28;20373;-72
2022/01/09 04:06:07;;;;;;;10.77;1.83;;;;;;;;;;5018022;28;20029;-71
2022/01/09 04:08:34;;;;;;;3.75;1.13;;;;;;;;;;5018189;28;20023;-72
2022/01/09 04:11:02;;;;;;;3.85;1.02;;;;;;;;;;5000948;28;20006;-73
2022/01/09 04:13:28;;;;;;;4.03;0.98;;;;;;;;;;5011185;28;20018;-72
2022/01/09 04:15:53;;;;;;;7.00;1.77;;;;;;;;;;5037946;28;20029;-73
2022/01/09 04:18:21;;;;;;;9.43;1.65;;;;;;;;;;5020748;28;20006;-72
2022/01/09 04:20:48;;;;;;;5.28;1.85;;;;;;;;;;5018112;28;20034;-73
2022/01/09 04:23:15;;;;;;;4.18;1.40;;;;;;;;;;5017553;28;20037;-73
2022/01/09 04:25:42;;;;;;;5.88;1.20;;;;;;;;;;5017687;28;20116;-73
2022/01/09 04:28:08;;;;;;;5.55;1.30;;;;;;;;;;5017163;28;20018;-72
2022/01/09 04:30:34;;;;;;;2.75;1.13;;;;;;;;;;5017571;28;20049;-73
2022/01/09 04:32:59;;;;;;;2.08;1.13;;;;;;;;;;5017810;28;20018;-72
2022/01/09 04:35:26;;;;;;;6.95;1.42;;;;;;;;;;5017199;28;20018;-73
2022/01/09 04:37:53;;;;;;;5.00;1.25;;;;;;;;;;5017435;28;20011;-72
2022/01/09 04:40:20;;;;;;;5.03;1.30;;;;;;;;;;4997877;28;20049;-73
2022/01/09 04:42:59;;;;;;;6.78;1.60;;;;;;;;;;4997980;28;20050;-72
2022/01/09 04:45:26;;;;;;;4.65;1.77;;;;;;;;;;4962472;29;20011;-72
2022/01/09 04:47:53;;;;;;;8.18;1.80;;;;;;;;;;4995371;28;20015;-71
2022/01/09 04:50:27;;;;;;;3.13;1.70;;;;;;;;;;5013224;28;20010;-72
2022/01/09 04:53:00;;;;;;;6.88;1.40;;;;;;;;;;4984557;28;20039;-72
2022/01/09 04:55:30;;;;;;;7.10;1.45;;;;;;;;;;5003027;28;20007;-72
2022/01/09 04:57:56;;;;;;;4.97;1.55;;;;;;;;;;5005157;28;20026;-72
2022/01/09 05:00:24;;;;;;;5.80;1.40;;;;;;;;;;5001453;28;20015;-72
2022/01/09 05:02:50;;;;;;;7.38;2.03;;;;;;;;;;5001710;28;20023;-72
2022/01/09 05:05:15;;;;;;;5.80;1.40;;;;;;;;;;4985181;28;20086;-72
2022/01/09 05:07:42;;;;;;;3.80;1.60;;;;;;;;;;5006811;28;20241;-72
2022/01/09 05:10:09;;;;;;;9.43;1.92;;;;;;;;;;5002276;28;20019;-73
2022/01/09 05:12:34;;;;;;;6.28;1.80;;;;;;;;;;5001406;28;20045;-73
2022/01/09 05:15:01;;;;;;;6.85;1.42;;;;;;;;;;5001841;28;20034;-72
2022/01/09 05:17:26;;;;;;;4.68;1.48;;;;;;;;;;5001400;28;20015;-71
2022/01/09 05:19:57;;;;;;;3.88;1.50;;;;;;;;;;5001661;28;20022;-72
2022/01/09 05:22:23;;;;;;;5.43;1.40;;;;;;;;;;5002005;28;20002;-72
2022/01/09 05:24:49;;;;;;;3.58;1.58;;;;;;;;;;5016248;28;20022;-72
2022/01/09 05:27:14;;;;;;;2.97;1.30;;;;;;;;;;5001864;28;20038;-71
2022/01/09 05:29:40;;;;;;;4.95;1.38;;;;;;;;;;4970744;29;20019;-72
2022/01/09 05:32:05;;;;;;;6.78;1.50;;;;;;;;;;5003064;28;20014;-71
2022/01/09 05:34:31;;;;;;;5.18;1.50;;;;;;;;;;5001298;28;20042;-72
2022/01/09 05:36:57;;;;;;;5.50;1.83;;;;;;;;;;5011382;28;20029;-71
2022/01/09 05:39:22;;;;;;;2.72;1.38;;;;;;;;;;5002164;28;20042;-71
2022/01/09 05:41:47;;;;;;;2.97;1.40;;;;;;;;;;5020650;28;20038;-72
2022/01/09 05:44:13;;;;;;;3.30;1.25;;;;;;;;;;5020816;28;20026;-72
2022/01/09 05:46:39;;;;;;;3.75;1.27;;;;;;;;;;5003703;28;20069;-72
2022/01/09 05:49:04;;;;;;;6.03;1.35;;;;;;;;;;5020556;28;20038;-71
2022/01/09 05:51:30;;;;;;;5.07;1.23;;;;;;;;;;5019940;28;20014;-72
2022/01/09 05:53:55;;;;;;;4.10;1.65;;;;;;;;;;5019899;28;20026;-71
2022/01/09 05:56:21;;;;;;;1.98;1.00;;;;;;;;;;5020329;28;20034;-71
2022/01/09 05:58:46;;;;;;;8.90;1.67;;;;;;;;;;5002871;28;20026;-70
2022/01/09 06:01:11;;;;;;;5.03;1.40;;;;;;;;;;5019726;28;20037;-71
2022/01/09 06:03:37;;;;;;;7.05;1.55;;;;;;;;;;5019413;28;20018;-72
2022/01/09 06:06:04;;;;;;;4.95;1.63;;;;;;;;;;5019960;28;20025;-71
2022/01/09 06:08:29;;;;;;;4.53;1.52;;;;;;;;;;5020574;28;20014;-72
2022/01/09 06:10:55;;;;;;;7.43;1.90;;;;;;;;;;5019151;28;20014;-72
2022/01/09 06:13:20;;;;;;;5.50;1.40;;;;;;;;;;5019837;28;20041;-72
2022/01/09 06:15:45;;;;;;;7.97;1.75;;;;;;;;;;5020093;28;20213;-72
2022/01/09 06:18:12;;;;;;;7.47;1.50;;;;;;;;;;5019791;28;20010;-71
2022/01/09 06:20:38;;;;;;;3.35;1.60;;;;;;;;;;5019773;28;20022;-72
2022/01/09 06:23:04;;;;;;;4.22;1.90;;;;;;;;;;5001745;28;20045;-72
2022/01/09 06:25:29;;;;;;;5.43;1.67;;;;;;;;;;5019202;28;20038;-73
2022/01/09 06:27:54;;;;;;;4.97;1.80;;;;;;;;;;5002344;28;20044;-72
2022/01/09 06:30:23;;;;;;;9.10;1.70;;;;;;;;;;5019322;28;20037;-72
2022/01/09 06:32:48;;;;;;;6.57;1.83;;;;;;;;;;5019785;28;20033;-72
2022/01/09 06:35:14;;;;;;;3.20;1.73;;;;;;;;;;5019671;28;20006;-71
2022/01/09 06:37:40;;;;;;;6.53;1.67;;;;;;;;;;5018492;28;20022;-71
2022/01/09 06:40:07;;;;;;;8.50;1.75;;;;;;;;;;5019000;28;20038;-71
2022/01/09 06:42:32;;;;;;;5.53;2.03;;;;;;;;;;5002185;28;20030;-72
2022/01/09 06:44:58;;;;;;;9.85;2.25;;;;;;;;;;5019130;28;20071;-72
2022/01/09 06:47:23;;;;;;;5.53;2.10;;;;;;;;;;5002035;28;20113;-72
2022/01/09 06:49:48;;;;;;;5.95;2.22;;;;;;;;;;5002388;28;20006;-72
2022/01/09 06:52:14;;;;;;;5.72;2.15;;;;;;;;;;5019088;28;20053;-71
2022/01/09 06:54:40;;;;;;;3.75;2.22;;;;;;;;;;5001530;28;20024;-71
2022/01/09 06:57:05;;;;;;;4.70;2.33;;;;;;;;;;5018698;28;20026;-71
2022/01/09 06:59:31;;;;;;;3.67;1.85;;;;;;;;;;5018630;28;20078;-71
2022/01/09 07:01:56;;;;;;;5.57;2.00;;;;;;;;;;5018780;28;20026;-72
2022/01/09 07:04:22;;;;;;;4.35;1.80;;;;;;;;;;5018424;28;20021;-72
2022/01/09 07:06:48;;;;;;;4.53;2.00;;;;;;;;;;5018335;28;20099;-71
2022/01/09 07:09:13;;;;;;;5.25;1.92;;;;;;;;;;5017995;28;20018;-71
2022/01/09 07:11:38;;;;;;;7.65;2.10;;;;;;;;;;5017812;28;20042;-71
2022/01/09 07:14:04;;;;;;;5.65;2.17;;;;;;;;;;5018002;28;20033;-71
2022/01/09 07:16:29;;;;;;;4.15;2.25;;;;;;;;;;5017585;28;20046;-71
2022/01/09 07:18:55;;;;;;;5.25;2.22;;;;;;;;;;5017930;28;20081;-72
2022/01/09 07:21:20;;;;;;;5.53;2.00;;;;;;;;;;5001254;28;20049;-72
2022/01/09 07:23:46;;;;;;;3.95;1.90;;;;;;;;;;5018280;28;20034;-72
2022/01/09 07:26:11;;;;;;;5.07;1.80;;;;;;;;;;5018840;28;20029;-72
2022/01/09 07:28:36;;;;;;;4.03;1.60;;;;;;;;;;5018316;28;20019;-72
2022/01/09 07:31:02;;;;;;;1.58;0.85;;;;;;;;;;5001467;28;20037;-71
2022/01/09 07:33:28;;;;;;;4.85;1.00;;;;;;;;;;5018419;28;20022;-71
2022/01/09 07:35:54;;;;;;;2.47;1.00;;;;;;;;;;5018550;28;20048;-71
2022/01/09 07:38:19;;;;;;;7.55;0.93;;;;;;;;;;5018578;28;20025;-71
2022/01/09 07:40:47;;;;;;;4.90;1.10;;;;;;;;;;5018621;28;20232;-71
2022/01/09 07:43:12;;;;;;;4.40;1.55;;;;;;;;;;5018765;28;20077;-71
2022/01/09 07:45:39;;;;;;;3.88;1.40;;;;;;;;;;5001695;28;20014;-72
2022/01/09 07:48:04;;;;;;;3.75;1.60;;;;;;;;;;5018144;28;20010;-72
2022/01/09 07:50:30;;;;;;;2.75;1.05;;;;;;;;;;5000791;28;20042;-72
2022/01/09 07:52:56;;;;;;;5.55;1.60;;;;;;;;;;5016953;28;20050;-71
2022/01/09 07:55:22;;;;;;;2.75;1.27;;;;;;;;;;5014943;28;20033;-71
2022/01/09 07:57:48;;;;;;;1.80;1.20;;;;;;;;;;5031684;28;20026;-71
2022/01/09 08:00:15;;;;;;;3.78;1.42;;;;;;;;;;5017281;28;20038;-71
2022/01/09 08:02:41;;;;;;;5.25;1.40;;;;;;;;;;5017885;28;20022;-72
2022/01/09 08:05:07;;;;;;;2.53;1.00;;;;;;;;;;5017105;28;20049;-71
2022/01/09 08:07:32;;;;;;;4.68;1.30;;;;;;;;;;5017245;28;20014;-71
2022/01/09 08:09:58;;;;;;;9.70;1.13;;;;;;;;;;5017797;28;20041;-71
2022/01/09 08:12:23;;;;;;;2.95;1.10;;;;;;;;;;5016610;28;20034;-71
2022/01/09 08:14:49;;;;;;;2.05;1.15;;;;;;;;;;5018019;28;20022;-72
2022/01/09 08:17:14;;;;;;;2.00;1.17;;;;;;;;;;5017169;28;20021;-71
2022/01/09 08:19:40;;;;;;;6.13;1.67;;;;;;;;;;5017453;28;20049;-72
2022/01/09 08:22:07;;;;;;;4.50;1.50;;;;;;;;;;5030749;28;20107;-72
2022/01/09 08:24:34;;;;;;;4.30;1.77;;;;;;;;;;5017770;28;20025;-72
2022/01/09 08:26:59;;;;;;;2.60;1.63;;;;;;;;;;5016389;28;20034;-73
2022/01/09 08:29:25;;;;;;;3.78;1.63;;;;;;;;;;5018013;28;20017;-72
2022/01/09 08:31:50;;;;;;;2.05;1.55;;;;;;;;;;5016931;28;20072;-72
2022/01/09 08:34:16;;;;;;;2.53;1.13;;;;;;;;;;5017254;28;20033;-72
2022/01/09 08:36:42;;;;;;;4.72;1.30;;;;;;;;;;5017122;28;20024;-72
2022/01/09 08:39:07;;;;;;;5.78;1.70;;;;;;;;;;5017423;28;20034;-72
2022/01/09 08:41:33;;;;;;;2.10;1.27;;;;;;;;;;5016650;28;20035;-72
2022/01/09 08:44:01;;;;;;;3.65;1.80;;;;;;;;;;5000500;28;20022;-72
2022/01/09 08:46:27;;;;;;;3.83;1.92;;;;;;;;;;5017315;28;20037;-72
2022/01/09 08:48:53;;;;;;;2.53;1.40;;;;;;;;;;5016576;28;20022;-72
2022/01/09 08:51:18;;;;;;;4.10;1.35;;;;;;;;;;5032446;28;20229;-72
2022/01/09 08:53:50;;;;;;;3.35;1.70;;;;;;;;;;5015922;28;20030;-73
2022/01/09 08:56:19;;;;;;;3.60;1.90;;;;;;;;;;5016790;28;20050;-73
2022/01/09 08:58:44;;;;;;;6.57;2.05;;;;;;;;;;5016349;28;20029;-72
2022/01/09 09:01:10;;;;;;;4.05;2.50;;;;;;;;;;5016522;28;20245;-72
2022/01/09 09:03:40;;;;;;;5.40;2.08;;;;;;;;;;5016739;28;20041;-73
2022/01/09 09:06:06;;;;;;;6.55;2.60;;;;;;;;;;4999302;28;20033;-72
2022/01/09 09:08:31;;;;;;;5.00;2.40;;;;;;;;;;5016819;28;20022;-72
2022/01/09 09:10:57;;;;;;;4.57;2.50;;;;;;;;;;5016794;28;20026;-72
2022/01/09 09:13:22;;;;;;;10.02;2.83;;;;;;;;;;4999188;28;20054;-72
2022/01/09 09:15:47;;;;;;;10.05;2.80;;;;;;;;;;4999227;28;20026;-73
2022/01/09 09:18:13;;;;;;;8.98;3.00;;;;;;;;;;5016354;28;20014;-72
2022/01/09 09:20:38;;;;;;;6.50;3.35;;;;;;;;;;5016173;28;20122;-72
2022/01/09 09:23:04;;;;;;;11.30;3.63;;;;;;;;;;4999436;28;20027;-73
2022/01/09 09:25:29;;;;;;;7.45;4.00;;;;;;;;;;4999596;28;20021;-73
2022/01/09 09:27:55;;;;;;;8.20;3.80;;;;;;;;;;5016157;28;20064;-73
2022/01/09 09:30:20;;;;;;;7.15;4.10;;;;;;;;;;5015453;28;20018;-72
2022/01/09 09:32:45;;;;;;;8.38;4.15;;;;;;;;;;5016765;28;20018;-73
2022/01/09 09:35:11;;;;;;;9.52;4.43;;;;;;;;;;5012224;28;20041;-73
2022/01/09 09:37:37;;;;;;;10.95;4.47;;;;;;;;;;5020217;28;20018;-73
2022/01/09 09:40:03;;;;;;;10.18;4.60;;;;;;;;;;5016943;28;20123;-73
2022/01/09 09:42:28;;;;;;;7.82;4.60;;;;;;;;;;5019203;28;20014;-73
2022/01/09 09:45:00;;;;;;;11.35;3.70;;;;;;;;;;5021986;28;20090;-72
2022/01/09 09:47:26;;;;;;;7.88;3.97;;;;;;;;;;5005555;28;20010;-72
2022/01/09 09:49:51;;;;;;;9.15;4.32;;;;;;;;;;5019588;28;20006;-72
2022/01/09 09:52:18;;;;;;;8.23;4.55;;;;;;;;;;5018967;28;20022;-72
2022/01/09 09:54:46;;;;;;;11.45;4.53;;;;;;;;;;5010792;28;20029;-72
2022/01/09 09:57:11;;;;;;;7.53;3.63;;;;;;;;;;5018670;28;20022;-72
2022/01/09 09:59:38;;;;;;;8.55;4.50;;;;;;;;;;5018331;28;20023;-73
2022/01/09 10:02:17;;;;;;;8.65;4.13;;;;;;;;;;5007593;28;20037;-72
2022/01/09 10:05:05;;;;;;;6.30;3.92;;;;;;;;;;5019147;28;20006;-73
2022/01/09 10:07:30;;;;;;;8.85;3.85;;;;;;;;;;5019161;28;20014;-72
2022/01/09 10:09:59;;;;;;;7.35;3.83;;;;;;;;;;5018585;28;20022;-72
2022/01/09 10:12:30;;;;;;;6.05;3.67;;;;;;;;;;5012215;28;20018;-72
2022/01/09 10:14:57;;;;;;;7.25;4.00;;;;;;;;;;5018572;28;20263;-72
2022/01/09 10:17:24;;;;;;;8.30;3.53;;;;;;;;;;5019234;28;20018;-72
2022/01/09 10:20:02;;;;;;;7.13;3.45;;;;;;;;;;5018824;28;20006;-72
2022/01/09 10:22:40;;;;;;;6.57;3.20;;;;;;;;;;5001568;28;20029;-73
2022/01/09 10:25:35;;;;;;;6.25;3.58;;;;;;;;;;5018283;28;20053;-72
2022/01/09 10:28:03;;;;;;;6.50;3.13;;;;;;;;;;5018915;28;20010;-73
2022/01/09 10:30:39;;;;;;;7.22;3.33;;;;;;;;;;5018814;28;20026;-73
2022/01/09 10:33:10;;;;;;;8.38;3.85;;;;;;;;;;5017953;28;20017;-72
2022/01/09 10:35:37;;;;;;;6.13;3.55;;;;;;;;;;5003543;28;20038;-73
2022/01/09 10:38:14;;;;;;;10.23;3.42;;;;;;;;;;5018228;28;20041;-72
2022/01/09 10:40:41;;;;;;;7.45;3.05;;;;;;;;;;5018471;28;20034;-73
2022/01/09 10:43:08;;;;;;;6.68;3.65;;;;;;;;;;5018284;28;20044;-72
2022/01/09 10:45:41;;;;;;;8.98;3.65;;;;;;;;;;4999261;28;20015;-73
2022/01/09 10:48:12;;;;;;;7.65;3.67;;;;;;;;;;5025488;28;20216;-72
2022/01/09 10:50:40;;;;;;;8.05;3.50;;;;;;;;;;5015901;28;20010;-73
2022/01/09 10:53:14;;;;;;;7.10;3.40;;;;;;;;;;5026109;28;20021;-72
2022/01/09 10:55:39;;;;;;;6.88;3.53;;;;;;;;;;5018831;28;20026;-72
2022/01/09 10:58:18;;;;;;;7.38;3.60;;;;;;;;;;5018351;28;20227;-72
2022/01/09 11:00:44;;;;;;;5.60;3.38;;;;;;;;;;5023981;28;20026;-72
2022/01/09 11:03:09;;;;;;;6.03;3.13;;;;;;;;;;5000755;28;20018;-72
2022/01/09 11:05:35;;;;;;;9.05;3.40;;;;;;;;;;5018994;28;20256;-73
2022/01/09 11:08:04;;;;;;;6.22;3.08;;;;;;;;;;5018525;28;20014;-72
2022/01/09 11:10:31;;;;;;;8.18;3.92;;;;;;;;;;5001780;28;20011;-72
2022/01/09 11:12:59;;;;;;;6.50;3.50;;;;;;;;;;5000170;28;20033;-72
2022/01/09 11:15:29;;;;;;;8.30;3.67;;;;;;;;;;5013068;28;20011;-73
2022/01/09 11:17:58;;;;;;;8.13;3.15;;;;;;;;;;5016998;28;20029;-72
2022/01/09 11:20:24;;;;;;;9.68;3.90;;;;;;;;;;5018171;28;20034;-73
2022/01/09 11:22:53;;;;;;;5.65;3.60;;;;;;;;;;5018064;28;20026;-72
2022/01/09 11:25:24;;;;;;;7.78;3.90;;;;;;;;;;5017485;28;20022;-72
2022/01/09 11:27:55;;;;;;;7.10;4.32;;;;;;;;;;5025400;28;20018;-73
2022/01/09 11:30:55;;;;;;;7.60;4.10;;;;;;;;;;5023632;28;20261;-71
2022/01/09 11:33:42;;;;;;;6.30;3.72;;;;;;;;;;5016301;28;20083;-72
2022/01/09 11:36:26;;;;;;;8.73;4.10;;;;;;;;;;5004012;28;20019;-72
2022/01/09 11:39:13;;;;;;;10.13;4.53;;;;;;;;;;5022282;28;20096;-72
2022/01/09 11:41:43;;;;;;;7.60;4.65;;;;;;;;;;5021061;28;20057;-72
2022/01/09 11:44:14;;;;;;;6.70;4.40;;;;;;;;;;5017453;28;20029;-72
2022/01/09 11:46:59;;;;;;;9.43;4.07;;;;;;;;;;5005367;28;20014;-72
2022/01/09 11:49:27;;;;;;;6.88;4.03;;;;;;;;;;4997933;28;20021;-72
2022/01/09 11:51:59;;;;;;;8.20;3.97;;;;;;;;;;5020162;28;20010;-73
2022/01/09 11:54:26;;;;;;;6.70;4.15;;;;;;;;;;5017464;28;20014;-72
2022/01/09 11:57:10;;;;;;;8.13;3.90;;;;;;;;;;5017170;28;20014;-73
2022/01/09 11:59:38;;;;;;;6.80;4.15;;;;;;;;;;5017644;28;20025;-72
2022/01/09 12:02:29;;;;;;;8.70;3.97;;;;;;;;;;5017722;28;20017;-73
2022/01/09 12:04:54;;;;;;;7.72;4.03;;;;;;;;;;5017522;28;20037;-72
2022/01/09 12:07:19;;;;;;;9.07;3.78;;;;;;;;;;5016184;28;20018;-72
2022/01/09 12:09:51;;;;;;;8.18;4.28;;;;;;;;;;5018635;28;20010;-71
2022/01/09 12:12:20;;;;;;;8.85;4.38;;;;;;;;;;5009834;28;20022;-72
2022/01/09 12:14:45;;;;;;;7.88;4.13;;;;;;;;;;5019553;28;20018;-72
2022/01/09 12:17:26;;;;;;;6.63;3.70;;;;;;;;;;5021287;28;20045;-72
2022/01/09 12:20:01;;;;;;;7.00;3.85;;;;;;;;;;5015122;28;20025;-72
2022/01/09 12:22:48;;;;;;;9.07;3.85;;;;;;;;;;4999355;28;20026;-72
2022/01/09 12:25:25;;;;;;;7.28;3.90;;;;;;;;;;5016015;28;20033;-72
2022/01/09 12:28:10;;;;;;;8.00;3.67;;;;;;;;;;5016563;28;20023;-72
2022/01/09 12:30:38;;;;;;;6.60;3.78;;;;;;;;;;5015352;28;20083;-72
2022/01/09 12:33:06;;;;;;;6.50;3.80;;;;;;;;;;4998619;28;20029;-72
2022/01/09 12:35:33;;;;;;;9.85;4.57;;;;;;;;;;5017206;28;20014;-73
2022/01/09 12:38:00;;;;;;;9.02;4.90;;;;;;;;;;5016858;28;20022;-73
2022/01/09 12:40:30;;;;;;;7.90;4.57;;;;;;;;;;5016823;28;20086;-72
2022/01/09 12:42:58;;;;;;;9.93;5.18;;;;;;;;;;5013533;28;20018;-72
2022/01/09 12:45:25;;;;;;;8.60;4.90;;;;;;;;;;5014391;28;20060;-73
2022/01/09 12:47:52;;;;;;;7.32;4.45;;;;;;;;;;5013624;28;20006;-72
2022/01/09 12:50:29;;;;;;;8.55;4.72;;;;;;;;;;4998570;28;20033;-71
2022/01/09 12:53:14;;;;;;;7.47;4.65;;;;;;;;;;4998002;28;20078;-72
2022/01/09 12:56:00;;;;;;;8.75;4.68;;;;;;;;;;5015911;28;20045;-72
2022/01/09 12:58:32;;;;;;;10.38;5.03;;;;;;;;;;5015436;28;20049;-72
2022/01/09 13:01:01;;;;;;;6.70;4.38;;;;;;;;;;5015032;28;20056;-72
2022/01/09 13:03:31;;;;;;;8.77;4.78;;;;;;;;;;5015601;28;20018;-72
2022/01/09 13:06:01;;;;;;;9.20;5.40;;;;;;;;;;4999814;28;20050;-72
2022/01/09 13:08:27;;;;;;;6.82;4.82;;;;;;;;;;4999693;28;20014;-72
2022/01/09 13:11:04;;;;;;;7.93;5.10;;;;;;;;;;5019410;28;20033;-71
2022/01/09 13:13:31;;;;;;;9.48;5.43;;;;;;;;;;5002824;28;20073;-71
2022/01/09 13:15:57;;;;;;;9.60;5.30;;;;;;;;;;5020090;28;20033;-72
2022/01/09 13:18:44;;;;;;;9.43;4.75;;;;;;;;;;5019829;28;20041;-72
2022/01/09 13:21:10;;;;;;;7.85;4.93;;;;;;;;;;5035339;28;20030;-72
2022/01/09 13:23:59;;;;;;;9.05;5.35;;;;;;;;;;5019438;28;20034;-72
2022/01/09 13:26:28;;;;;;;7.78;4.88;;;;;;;;;;5002481;28;20026;-72
2022/01/09 13:28:54;;;;;;;8.23;4.80;;;;;;;;;;5019897;28;20017;-72
2022/01/09 13:31:22;;;;;;;7.95;4.55;;;;;;;;;;5019890;28;20037;-72
2022/01/09 13:34:04;;;;;;;10.23;5.35;;;;;;;;;;5019722;28;20033;-71
2022/01/09 13:36:57;;;;;;;10.07;5.75;;;;;;;;;;5019848;28;20102;-71
2022/01/09 13:39:26;;;;;;;9.82;5.75;;;;;;;;;;5016515;28;20022;-71
2022/01/09 13:42:00;;;;;;;11.25;6.03;;;;;;;;;;4980272;28;1119408;-71
2022/01/09 13:44:43;;;;;;;8.65;4.93;;;;;;;;;;5020574;28;20022;-71
2022/01/09 13:47:10;;;;;;;8.20;4.63;;;;;;;;;;5003580;28;20090;-71
2022/01/09 13:50:00;;;;;;;9.45;4.97;;;;;;;;;;5003818;28;20014;-72
2022/01/09 13:52:27;;;;;;;9.18;4.72;;;;;;;;;;4985445;28;20026;-72
2022/01/09 13:55:12;;;;;;;10.63;5.38;;;;;;;;;;5019813;28;20014;-71
2022/01/09 13:57:49;;;;;;;11.68;5.88;;;;;;;;;;5020405;28;20018;-71
2022/01/09 14:00:14;;;;;;;11.98;6.43;;;;;;;;;;5020325;28;20006;-72
2022/01/09 14:02:41;;;;;;;11.25;6.97;;;;;;;;;;5003554;28;20030;-72
2022/01/09 14:05:16;;;;;;;10.85;6.80;;;;;;;;;;5020579;28;20030;-72
2022/01/09 14:07:58;;;;;;;11.23;6.00;;;;;;;;;;5020037;28;20018;-71
2022/01/09 14:10:40;;;;;;;16.73;7.57;;;;;;;;;;5003112;28;20015;-72
2022/01/09 14:13:19;;;;;;;11.95;7.07;;;;;;;;;;5003992;28;20022;-72
2022/01/09 14:15:47;;;;;;;13.70;7.20;;;;;;;;;;5020259;28;20026;-72
2022/01/09 14:18:27;;;;;;;14.55;8.60;;;;;;;;;;5003813;28;20018;-72
2022/01/09 14:21:10;;;;;;;15.50;7.75;;;;;;;;;;5020543;28;20033;-72
2022/01/09 14:23:41;;;;;;;12.23;6.95;;;;;;;;;;5020086;28;20029;-72
2022/01/09 14:26:11;;;;;;;13.30;6.72;;;;;;;;;;5019792;28;20082;-72
2022/01/09 14:28:37;;;;;;;10.68;5.82;;;;;;;;;;5019725;28;20023;-71
2022/01/09 14:31:08;;;;;;;10.35;6.15;;;;;;;;;;5019632;28;20010;-71
2022/01/09 14:33:34;;;;;;;12.80;6.03;;;;;;;;;;5019949;28;20010;-72
2022/01/09 14:36:17;;;;;;;15.05;7.70;;;;;;;;;;5002691;28;20015;-73
2022/01/09 14:38:51;;;;;;;14.70;7.30;;;;;;;;;;5019813;28;20018;-72
2022/01/09 14:41:18;;;;;;;13.30;6.55;;;;;;;;;;5001738;28;20034;-72
2022/01/09 14:43:43;;;;;;;12.38;7.82;;;;;;;;;;5019033;28;20030;-72
2022/01/09 14:46:09;;;;;;;14.52;7.47;;;;;;;;;;5019629;28;20022;-72
2022/01/09 14:48:39;;;;;;;13.05;7.55;;;;;;;;;;5018955;28;20041;-72